sensor_id;sensor_type;location;lat;lon;timestamp;P1;durP1;ratioP1;P2;durP2;ratioP2
22673;SDS011;11504;43.334;21.918;2022-12-18T00:00:45;45.0;;;40.0;;
22673;SDS011;11504;43.334;21.918;2022-12-18T00:05:23;44.0;;;39.0;;
22673;SDS011;11504;43.334;21.918;2022-12-18T00:09:59;44.0;;;39.0;;
22673;SDS011;11504;43.334;21.918;2022-12-18T00:14:35;42.0;;;38.0;;
22673;SDS011;11504;43.334;21.918;2022-12-18T00:19:11;42.0;;;38.0;;
22673;SDS011;11504;43.334;21.918;2022-12-18T00:23:50;42.0;;;36.0;;
22673;SDS011;11504;43.334;21.918;2022-12-18T00:28:27;42.0;;;36.0;;
22673;SDS011;11504;43.334;21.918;2022-12-18T00:33:04;43.0;;;35.0;;
22673;SDS011;11504;43.334;21.918;2022-12-18T00:37:40;43.0;;;35.0;;
22673;SDS011;11504;43.334;21.918;2022-12-18T00:42:16;43.0;;;36.0;;
22673;SDS011;11504;43.334;21.918;2022-12-18T00:46:53;43.0;;;36.0;;
22673;SDS011;11504;43.334;21.918;2022-12-18T00:51:29;43.0;;;36.0;;
22673;SDS011;11504;43.334;21.918;2022-12-18T00:56:06;43.0;;;37.0;;
22673;SDS011;11504;43.334;21.918;2022-12-18T01:00:43;43.0;;;37.0;;
22673;SDS011;11504;43.334;21.918;2022-12-18T01:05:20;40.0;;;36.0;;
22673;SDS011;11504;43.334;21.918;2022-12-18T01:09:56;40.0;;;36.0;;
22673;SDS011;11504;43.334;21.918;2022-12-18T01:14:33;37.0;;;35.0;;
22673;SDS011;11504;43.334;21.918;2022-12-18T01:19:09;37.0;;;35.0;;
22673;SDS011;11504;43.334;21.918;2022-12-18T01:23:45;41.0;;;39.0;;
22673;SDS011;11504;43.334;21.918;2022-12-18T01:28:27;41.0;;;39.0;;
22673;SDS011;11504;43.334;21.918;2022-12-18T01:33:03;45.0;;;43.0;;
22673;SDS011;11504;43.334;21.918;2022-12-18T01:37:41;45.0;;;43.0;;
22673;SDS011;11504;43.334;21.918;2022-12-18T01:42:17;40.0;;;38.0;;
22673;SDS011;11504;43.334;21.918;2022-12-18T01:46:53;40.0;;;38.0;;
22673;SDS011;11504;43.334;21.918;2022-12-18T01:51:30;40.0;;;38.0;;
22673;SDS011;11504;43.334;21.918;2022-12-18T01:56:06;36.0;;;33.0;;
22673;SDS011;11504;43.334;21.918;2022-12-18T02:00:48;36.0;;;33.0;;
22673;SDS011;11504;43.334;21.918;2022-12-18T02:05:27;37.0;;;34.0;;
22673;SDS011;11504;43.334;21.918;2022-12-18T02:10:27;37.0;;;34.0;;
22673;SDS011;11504;43.334;21.918;2022-12-18T02:15:24;38.0;;;36.0;;
22673;SDS011;11504;43.334;21.918;2022-12-18T02:20:32;38.0;;;36.0;;
22673;SDS011;11504;43.334;21.918;2022-12-18T02:25:32;36.0;;;34.0;;
22673;SDS011;11504;43.334;21.918;2022-12-18T02:30:51;36.0;;;34.0;;
22673;SDS011;11504;43.334;21.918;2022-12-18T02:35:41;35.0;;;33.0;;
22673;SDS011;11504;43.334;21.918;2022-12-18T02:40:24;35.0;;;33.0;;
22673;SDS011;11504;43.334;21.918;2022-12-18T02:45:05;35.0;;;32.0;;
22673;SDS011;11504;43.334;21.918;2022-12-18T02:49:44;35.0;;;32.0;;
22673;SDS011;11504;43.334;21.918;2022-12-18T02:54:50;35.0;;;32.0;;
22673;SDS011;11504;43.334;21.918;2022-12-18T02:59:49;35.0;;;32.0;;
22673;SDS011;11504;43.334;21.918;2022-12-18T03:04:42;36.0;;;32.0;;
22673;SDS011;11504;43.334;21.918;2022-12-18T03:09:36;36.0;;;32.0;;
22673;SDS011;11504;43.334;21.918;2022-12-18T03:14:23;36.0;;;33.0;;
22673;SDS011;11504;43.334;21.918;2022-12-18T03:19:07;36.0;;;33.0;;
22673;SDS011;11504;43.334;21.918;2022-12-18T03:23:56;38.0;;;33.0;;
22673;SDS011;11504;43.334;21.918;2022-12-18T03:28:36;38.0;;;33.0;;
22673;SDS011;11504;43.334;21.918;2022-12-18T03:33:27;39.0;;;33.0;;
22673;SDS011;11504;43.334;21.918;2022-12-18T03:38:21;39.0;;;33.0;;
22673;SDS011;11504;43.334;21.918;2022-12-18T03:42:59;36.0;;;32.0;;
22673;SDS011;11504;43.334;21.918;2022-12-18T03:48:06;36.0;;;32.0;;
22673;SDS011;11504;43.334;21.918;2022-12-18T03:53:09;32.0;;;30.0;;
22673;SDS011;11504;43.334;21.918;2022-12-18T03:58:26;32.0;;;30.0;;
22673;SDS011;11504;43.334;21.918;2022-12-18T04:03:16;34.0;;;30.0;;
22673;SDS011;11504;43.334;21.918;2022-12-18T04:07:58;34.0;;;30.0;;
22673;SDS011;11504;43.334;21.918;2022-12-18T04:12:38;35.0;;;31.0;;
22673;SDS011;11504;43.334;21.918;2022-12-18T04:17:14;35.0;;;31.0;;
22673;SDS011;11504;43.334;21.918;2022-12-18T04:21:50;35.0;;;31.0;;
22673;SDS011;11504;43.334;21.918;2022-12-18T04:26:26;35.0;;;32.0;;
22673;SDS011;11504;43.334;21.918;2022-12-18T04:31:03;35.0;;;32.0;;
22673;SDS011;11504;43.334;21.918;2022-12-18T04:35:40;35.0;;;32.0;;
22673;SDS011;11504;43.334;21.918;2022-12-18T04:40:17;35.0;;;32.0;;
22673;SDS011;11504;43.334;21.918;2022-12-18T04:44:53;37.0;;;33.0;;
22673;SDS011;11504;43.334;21.918;2022-12-18T04:49:29;37.0;;;33.0;;
22673;SDS011;11504;43.334;21.918;2022-12-18T04:54:06;39.0;;;34.0;;
22673;SDS011;11504;43.334;21.918;2022-12-18T04:58:42;39.0;;;34.0;;
22673;SDS011;11504;43.334;21.918;2022-12-18T05:03:20;36.0;;;33.0;;
22673;SDS011;11504;43.334;21.918;2022-12-18T05:07:56;36.0;;;33.0;;
22673;SDS011;11504;43.334;21.918;2022-12-18T05:12:33;34.0;;;32.0;;
22673;SDS011;11504;43.334;21.918;2022-12-18T05:17:09;34.0;;;32.0;;
22673;SDS011;11504;43.334;21.918;2022-12-18T05:21:45;34.0;;;32.0;;
22673;SDS011;11504;43.334;21.918;2022-12-18T05:26:21;35.0;;;32.0;;
22673;SDS011;11504;43.334;21.918;2022-12-18T05:30:59;35.0;;;32.0;;
22673;SDS011;11504;43.334;21.918;2022-12-18T05:35:39;36.0;;;31.0;;
22673;SDS011;11504;43.334;21.918;2022-12-18T05:40:15;36.0;;;31.0;;
22673;SDS011;11504;43.334;21.918;2022-12-18T05:44:51;34.0;;;30.0;;
22673;SDS011;11504;43.334;21.918;2022-12-18T05:49:27;34.0;;;30.0;;
22673;SDS011;11504;43.334;21.918;2022-12-18T05:54:04;33.0;;;30.0;;
22673;SDS011;11504;43.334;21.918;2022-12-18T05:58:40;33.0;;;30.0;;
22673;SDS011;11504;43.334;21.918;2022-12-18T06:03:18;33.0;;;30.0;;
22673;SDS011;11504;43.334;21.918;2022-12-18T06:07:54;33.0;;;30.0;;
22673;SDS011;11504;43.334;21.918;2022-12-18T06:12:30;33.0;;;29.0;;
22673;SDS011;11504;43.334;21.918;2022-12-18T06:17:07;33.0;;;29.0;;
22673;SDS011;11504;43.334;21.918;2022-12-18T06:21:43;33.0;;;29.0;;
22673;SDS011;11504;43.334;21.918;2022-12-18T06:26:20;34.0;;;30.0;;
22673;SDS011;11504;43.334;21.918;2022-12-18T06:30:58;34.0;;;30.0;;
22673;SDS011;11504;43.334;21.918;2022-12-18T06:35:35;34.0;;;30.0;;
22673;SDS011;11504;43.334;21.918;2022-12-18T06:40:12;34.0;;;30.0;;
22673;SDS011;11504;43.334;21.918;2022-12-18T06:44:48;34.0;;;30.0;;
22673;SDS011;11504;43.334;21.918;2022-12-18T06:49:24;34.0;;;30.0;;
22673;SDS011;11504;43.334;21.918;2022-12-18T06:54:01;35.0;;;31.0;;
22673;SDS011;11504;43.334;21.918;2022-12-18T06:58:38;35.0;;;31.0;;
22673;SDS011;11504;43.334;21.918;2022-12-18T07:03:15;38.0;;;33.0;;
22673;SDS011;11504;43.334;21.918;2022-12-18T07:07:51;38.0;;;33.0;;
22673;SDS011;11504;43.334;21.918;2022-12-18T07:12:27;41.0;;;35.0;;
22673;SDS011;11504;43.334;21.918;2022-12-18T07:17:03;41.0;;;35.0;;
22673;SDS011;11504;43.334;21.918;2022-12-18T07:21:39;41.0;;;35.0;;
22673;SDS011;11504;43.334;21.918;2022-12-18T07:26:16;40.0;;;35.0;;
22673;SDS011;11504;43.334;21.918;2022-12-18T07:30:57;40.0;;;35.0;;
22673;SDS011;11504;43.334;21.918;2022-12-18T07:35:38;39.0;;;35.0;;
22673;SDS011;11504;43.334;21.918;2022-12-18T07:40:14;39.0;;;35.0;;
22673;SDS011;11504;43.334;21.918;2022-12-18T07:44:51;39.0;;;34.0;;
22673;SDS011;11504;43.334;21.918;2022-12-18T07:49:27;39.0;;;34.0;;
22673;SDS011;11504;43.334;21.918;2022-12-18T07:54:04;39.0;;;33.0;;
22673;SDS011;11504;43.334;21.918;2022-12-18T07:58:40;39.0;;;33.0;;
22673;SDS011;11504;43.334;21.918;2022-12-18T08:03:16;42.0;;;35.0;;
22673;SDS011;11504;43.334;21.918;2022-12-18T08:07:53;42.0;;;35.0;;
22673;SDS011;11504;43.334;21.918;2022-12-18T08:12:30;44.0;;;37.0;;
22673;SDS011;11504;43.334;21.918;2022-12-18T08:17:06;44.0;;;37.0;;
22673;SDS011;11504;43.334;21.918;2022-12-18T08:21:42;44.0;;;37.0;;
22673;SDS011;11504;43.334;21.918;2022-12-18T08:26:18;44.0;;;38.0;;
22673;SDS011;11504;43.334;21.918;2022-12-18T08:30:56;44.0;;;38.0;;
22673;SDS011;11504;43.334;21.918;2022-12-18T08:35:34;45.0;;;39.0;;
22673;SDS011;11504;43.334;21.918;2022-12-18T08:40:11;45.0;;;39.0;;
22673;SDS011;11504;43.334;21.918;2022-12-18T08:44:48;44.0;;;40.0;;
22673;SDS011;11504;43.334;21.918;2022-12-18T08:49:24;44.0;;;40.0;;
22673;SDS011;11504;43.334;21.918;2022-12-18T08:54:01;44.0;;;40.0;;
22673;SDS011;11504;43.334;21.918;2022-12-18T08:58:41;44.0;;;40.0;;
22673;SDS011;11504;43.334;21.918;2022-12-18T09:03:19;46.0;;;42.0;;
22673;SDS011;11504;43.334;21.918;2022-12-18T09:07:56;46.0;;;42.0;;
22673;SDS011;11504;43.334;21.918;2022-12-18T09:12:32;48.0;;;43.0;;
22673;SDS011;11504;43.334;21.918;2022-12-18T09:17:09;48.0;;;43.0;;
22673;SDS011;11504;43.334;21.918;2022-12-18T09:21:45;48.0;;;43.0;;
22673;SDS011;11504;43.334;21.918;2022-12-18T09:26:22;50.0;;;43.0;;
22673;SDS011;11504;43.334;21.918;2022-12-18T09:31:04;50.0;;;43.0;;
22673;SDS011;11504;43.334;21.918;2022-12-18T09:35:47;52.0;;;43.0;;
22673;SDS011;11504;43.334;21.918;2022-12-18T09:40:24;52.0;;;43.0;;
22673;SDS011;11504;43.334;21.918;2022-12-18T09:45:18;49.0;;;42.0;;
22673;SDS011;11504;43.334;21.918;2022-12-18T09:49:56;49.0;;;42.0;;
22673;SDS011;11504;43.334;21.918;2022-12-18T09:54:49;46.0;;;40.0;;
22673;SDS011;11504;43.334;21.918;2022-12-18T09:59:36;46.0;;;40.0;;
22673;SDS011;11504;43.334;21.918;2022-12-18T10:04:15;42.0;;;37.0;;
22673;SDS011;11504;43.334;21.918;2022-12-18T10:08:53;42.0;;;37.0;;
22673;SDS011;11504;43.334;21.918;2022-12-18T10:13:56;38.0;;;34.0;;
22673;SDS011;11504;43.334;21.918;2022-12-18T10:19:01;38.0;;;34.0;;
22673;SDS011;11504;43.334;21.918;2022-12-18T10:24:16;39.0;;;34.0;;
22673;SDS011;11504;43.334;21.918;2022-12-18T10:29:17;39.0;;;34.0;;
22673;SDS011;11504;43.334;21.918;2022-12-18T10:33:55;40.0;;;34.0;;
22673;SDS011;11504;43.334;21.918;2022-12-18T10:38:32;40.0;;;34.0;;
22673;SDS011;11504;43.334;21.918;2022-12-18T10:43:11;38.0;;;32.0;;
22673;SDS011;11504;43.334;21.918;2022-12-18T10:47:50;38.0;;;32.0;;
22673;SDS011;11504;43.334;21.918;2022-12-18T10:52:27;38.0;;;32.0;;
22673;SDS011;11504;43.334;21.918;2022-12-18T10:57:36;37.0;;;31.0;;
22673;SDS011;11504;43.334;21.918;2022-12-18T11:02:26;37.0;;;31.0;;
22673;SDS011;11504;43.334;21.918;2022-12-18T11:07:11;38.0;;;31.0;;
22673;SDS011;11504;43.334;21.918;2022-12-18T11:11:47;38.0;;;31.0;;
22673;SDS011;11504;43.334;21.918;2022-12-18T11:16:25;39.0;;;31.0;;
22673;SDS011;11504;43.334;21.918;2022-12-18T11:21:06;39.0;;;31.0;;
22673;SDS011;11504;43.334;21.918;2022-12-18T11:25:52;40.0;;;33.0;;
22673;SDS011;11504;43.334;21.918;2022-12-18T11:30:37;40.0;;;33.0;;
22673;SDS011;11504;43.334;21.918;2022-12-18T11:35:15;41.0;;;35.0;;
22673;SDS011;11504;43.334;21.918;2022-12-18T11:40:16;41.0;;;35.0;;
22673;SDS011;11504;43.334;21.918;2022-12-18T11:45:21;42.0;;;34.0;;
22673;SDS011;11504;43.334;21.918;2022-12-18T11:50:16;42.0;;;34.0;;
22673;SDS011;11504;43.334;21.918;2022-12-18T11:55:09;42.0;;;32.0;;
22673;SDS011;11504;43.334;21.918;2022-12-18T12:00:24;42.0;;;32.0;;
22673;SDS011;11504;43.334;21.918;2022-12-18T12:05:04;39.0;;;32.0;;
22673;SDS011;11504;43.334;21.918;2022-12-18T12:10:25;39.0;;;32.0;;
22673;SDS011;11504;43.334;21.918;2022-12-18T12:15:41;36.0;;;32.0;;
22673;SDS011;11504;43.334;21.918;2022-12-18T12:20:53;36.0;;;32.0;;
22673;SDS011;11504;43.334;21.918;2022-12-18T12:25:59;40.0;;;34.0;;
22673;SDS011;11504;43.334;21.918;2022-12-18T12:30:47;40.0;;;34.0;;
22673;SDS011;11504;43.334;21.918;2022-12-18T12:35:56;43.0;;;37.0;;
22673;SDS011;11504;43.334;21.918;2022-12-18T12:41:06;43.0;;;37.0;;
22673;SDS011;11504;43.334;21.918;2022-12-18T12:45:57;40.0;;;36.0;;
22673;SDS011;11504;43.334;21.918;2022-12-18T12:50:43;40.0;;;36.0;;
22673;SDS011;11504;43.334;21.918;2022-12-18T12:55:25;37.0;;;35.0;;
22673;SDS011;11504;43.334;21.918;2022-12-18T13:00:07;37.0;;;35.0;;
22673;SDS011;11504;43.334;21.918;2022-12-18T13:04:56;40.0;;;37.0;;
22673;SDS011;11504;43.334;21.918;2022-12-18T13:10:13;40.0;;;37.0;;
22673;SDS011;11504;43.334;21.918;2022-12-18T13:15:11;42.0;;;39.0;;
22673;SDS011;11504;43.334;21.918;2022-12-18T13:20:19;42.0;;;39.0;;
22673;SDS011;11504;43.334;21.918;2022-12-18T13:24:56;38.0;;;34.0;;
22673;SDS011;11504;43.334;21.918;2022-12-18T13:29:47;38.0;;;34.0;;
22673;SDS011;11504;43.334;21.918;2022-12-18T13:34:23;35.0;;;30.0;;
22673;SDS011;11504;43.334;21.918;2022-12-18T13:39:21;35.0;;;30.0;;
22673;SDS011;11504;43.334;21.918;2022-12-18T13:44:11;37.0;;;33.0;;
22673;SDS011;11504;43.334;21.918;2022-12-18T13:49:21;37.0;;;33.0;;
22673;SDS011;11504;43.334;21.918;2022-12-18T13:54:17;39.0;;;36.0;;
22673;SDS011;11504;43.334;21.918;2022-12-18T13:59:12;39.0;;;36.0;;
22673;SDS011;11504;43.334;21.918;2022-12-18T14:04:08;42.0;;;40.0;;
22673;SDS011;11504;43.334;21.918;2022-12-18T14:08:54;42.0;;;40.0;;
22673;SDS011;11504;43.334;21.918;2022-12-18T14:13:33;46.0;;;43.0;;
22673;SDS011;11504;43.334;21.918;2022-12-18T14:18:19;46.0;;;43.0;;
22673;SDS011;11504;43.334;21.918;2022-12-18T14:23:25;44.0;;;40.0;;
22673;SDS011;11504;43.334;21.918;2022-12-18T14:28:13;44.0;;;40.0;;
22673;SDS011;11504;43.334;21.918;2022-12-18T14:32:59;41.0;;;37.0;;
22673;SDS011;11504;43.334;21.918;2022-12-18T14:37:49;41.0;;;37.0;;
22673;SDS011;11504;43.334;21.918;2022-12-18T14:42:25;41.0;;;37.0;;
22673;SDS011;11504;43.334;21.918;2022-12-18T14:47:04;48.0;;;42.0;;
22673;SDS011;11504;43.334;21.918;2022-12-18T14:51:41;48.0;;;42.0;;
22673;SDS011;11504;43.334;21.918;2022-12-18T14:56:30;55.0;;;46.0;;
22673;SDS011;11504;43.334;21.918;2022-12-18T15:01:20;55.0;;;46.0;;
22673;SDS011;11504;43.334;21.918;2022-12-18T15:06:24;52.0;;;44.0;;
22673;SDS011;11504;43.334;21.918;2022-12-18T15:11:23;52.0;;;44.0;;
22673;SDS011;11504;43.334;21.918;2022-12-18T15:16:08;49.0;;;42.0;;
22673;SDS011;11504;43.334;21.918;2022-12-18T15:20:49;49.0;;;42.0;;
22673;SDS011;11504;43.334;21.918;2022-12-18T15:25:31;48.0;;;42.0;;
22673;SDS011;11504;43.334;21.918;2022-12-18T15:30:17;48.0;;;42.0;;
22673;SDS011;11504;43.334;21.918;2022-12-18T15:35:02;46.0;;;42.0;;
22673;SDS011;11504;43.334;21.918;2022-12-18T15:39:55;46.0;;;42.0;;
22673;SDS011;11504;43.334;21.918;2022-12-18T15:44:31;44.0;;;40.0;;
22673;SDS011;11504;43.334;21.918;2022-12-18T15:49:08;44.0;;;40.0;;
22673;SDS011;11504;43.334;21.918;2022-12-18T15:53:44;41.0;;;38.0;;
22673;SDS011;11504;43.334;21.918;2022-12-18T15:58:25;41.0;;;38.0;;
22673;SDS011;11504;43.334;21.918;2022-12-18T16:03:01;43.0;;;38.0;;
22673;SDS011;11504;43.334;21.918;2022-12-18T16:07:38;43.0;;;38.0;;
22673;SDS011;11504;43.334;21.918;2022-12-18T16:12:15;43.0;;;38.0;;
22673;SDS011;11504;43.334;21.918;2022-12-18T16:16:57;45.0;;;39.0;;
22673;SDS011;11504;43.334;21.918;2022-12-18T16:21:38;45.0;;;39.0;;
22673;SDS011;11504;43.334;21.918;2022-12-18T16:26:15;40.0;;;36.0;;
22673;SDS011;11504;43.334;21.918;2022-12-18T16:30:50;40.0;;;36.0;;
22673;SDS011;11504;43.334;21.918;2022-12-18T16:35:26;34.0;;;32.0;;
22673;SDS011;11504;43.334;21.918;2022-12-18T16:40:03;34.0;;;32.0;;
22673;SDS011;11504;43.334;21.918;2022-12-18T16:44:46;37.0;;;35.0;;
22673;SDS011;11504;43.334;21.918;2022-12-18T16:49:24;37.0;;;35.0;;
22673;SDS011;11504;43.334;21.918;2022-12-18T16:54:01;40.0;;;38.0;;
22673;SDS011;11504;43.334;21.918;2022-12-18T16:58:37;40.0;;;38.0;;
22673;SDS011;11504;43.334;21.918;2022-12-18T17:03:13;46.0;;;42.0;;
22673;SDS011;11504;43.334;21.918;2022-12-18T17:07:50;46.0;;;42.0;;
22673;SDS011;11504;43.334;21.918;2022-12-18T17:12:26;46.0;;;42.0;;
22673;SDS011;11504;43.334;21.918;2022-12-18T17:17:02;53.0;;;45.0;;
22673;SDS011;11504;43.334;21.918;2022-12-18T17:21:40;53.0;;;45.0;;
22673;SDS011;11504;43.334;21.918;2022-12-18T17:26:16;52.0;;;46.0;;
22673;SDS011;11504;43.334;21.918;2022-12-18T17:30:53;52.0;;;46.0;;
22673;SDS011;11504;43.334;21.918;2022-12-18T17:35:31;51.0;;;48.0;;
22673;SDS011;11504;43.334;21.918;2022-12-18T17:40:08;51.0;;;48.0;;
22673;SDS011;11504;43.334;21.918;2022-12-18T17:44:46;48.0;;;45.0;;
22673;SDS011;11504;43.334;21.918;2022-12-18T17:49:22;48.0;;;45.0;;
22673;SDS011;11504;43.334;21.918;2022-12-18T17:53:58;45.0;;;42.0;;
22673;SDS011;11504;43.334;21.918;2022-12-18T17:58:35;45.0;;;42.0;;
22673;SDS011;11504;43.334;21.918;2022-12-18T18:03:12;47.0;;;44.0;;
22673;SDS011;11504;43.334;21.918;2022-12-18T18:07:49;47.0;;;44.0;;
22673;SDS011;11504;43.334;21.918;2022-12-18T18:12:25;47.0;;;44.0;;
22673;SDS011;11504;43.334;21.918;2022-12-18T18:17:02;49.0;;;45.0;;
22673;SDS011;11504;43.334;21.918;2022-12-18T18:21:38;49.0;;;45.0;;
22673;SDS011;11504;43.334;21.918;2022-12-18T18:26:21;50.0;;;46.0;;
22673;SDS011;11504;43.334;21.918;2022-12-18T18:30:57;50.0;;;46.0;;
22673;SDS011;11504;43.334;21.918;2022-12-18T18:35:40;50.0;;;47.0;;
22673;SDS011;11504;43.334;21.918;2022-12-18T18:40:17;50.0;;;47.0;;
22673;SDS011;11504;43.334;21.918;2022-12-18T18:44:53;51.0;;;48.0;;
22673;SDS011;11504;43.334;21.918;2022-12-18T18:49:29;51.0;;;48.0;;
22673;SDS011;11504;43.334;21.918;2022-12-18T18:54:05;52.0;;;49.0;;
22673;SDS011;11504;43.334;21.918;2022-12-18T18:58:42;52.0;;;49.0;;
22673;SDS011;11504;43.334;21.918;2022-12-18T19:03:19;56.0;;;52.0;;
22673;SDS011;11504;43.334;21.918;2022-12-18T19:07:55;56.0;;;52.0;;
22673;SDS011;11504;43.334;21.918;2022-12-18T19:12:31;56.0;;;52.0;;
22673;SDS011;11504;43.334;21.918;2022-12-18T19:17:09;59.0;;;54.0;;
22673;SDS011;11504;43.334;21.918;2022-12-18T19:21:45;59.0;;;54.0;;
22673;SDS011;11504;43.334;21.918;2022-12-18T19:26:23;62.0;;;58.0;;
22673;SDS011;11504;43.334;21.918;2022-12-18T19:31:02;62.0;;;58.0;;
22673;SDS011;11504;43.334;21.918;2022-12-18T19:35:45;66.0;;;62.0;;
22673;SDS011;11504;43.334;21.918;2022-12-18T19:40:21;66.0;;;62.0;;
22673;SDS011;11504;43.334;21.918;2022-12-18T19:44:58;66.0;;;62.0;;
22673;SDS011;11504;43.334;21.918;2022-12-18T19:49:34;66.0;;;62.0;;
22673;SDS011;11504;43.334;21.918;2022-12-18T20:03:24;51.0;;;48.0;;
22673;SDS011;11504;43.334;21.918;2022-12-18T20:08:00;51.0;;;48.0;;
22673;SDS011;11504;43.334;21.918;2022-12-18T20:12:36;51.0;;;48.0;;
22673;SDS011;11504;43.334;21.918;2022-12-18T20:17:12;51.0;;;48.0;;
22673;SDS011;11504;43.334;21.918;2022-12-18T20:21:49;51.0;;;48.0;;
22673;SDS011;11504;43.334;21.918;2022-12-18T20:26:25;53.0;;;48.0;;
22673;SDS011;11504;43.334;21.918;2022-12-18T20:31:05;53.0;;;48.0;;
22673;SDS011;11504;43.334;21.918;2022-12-18T20:35:42;55.0;;;49.0;;
22673;SDS011;11504;43.334;21.918;2022-12-18T20:40:18;55.0;;;49.0;;
22673;SDS011;11504;43.334;21.918;2022-12-18T20:44:54;54.0;;;50.0;;
22673;SDS011;11504;43.334;21.918;2022-12-18T20:49:30;54.0;;;50.0;;
22673;SDS011;11504;43.334;21.918;2022-12-18T20:54:06;54.0;;;52.0;;
22673;SDS011;11504;43.334;21.918;2022-12-18T20:58:43;54.0;;;52.0;;
22673;SDS011;11504;43.334;21.918;2022-12-18T21:03:20;55.0;;;50.0;;
22673;SDS011;11504;43.334;21.918;2022-12-18T21:07:56;55.0;;;50.0;;
22673;SDS011;11504;43.334;21.918;2022-12-18T21:12:32;55.0;;;50.0;;
22673;SDS011;11504;43.334;21.918;2022-12-18T21:17:09;56.0;;;49.0;;
22673;SDS011;11504;43.334;21.918;2022-12-18T21:21:45;56.0;;;49.0;;
22673;SDS011;11504;43.334;21.918;2022-12-18T21:26:25;52.0;;;46.0;;
22673;SDS011;11504;43.334;21.918;2022-12-18T21:31:02;52.0;;;46.0;;
22673;SDS011;11504;43.334;21.918;2022-12-18T21:35:38;47.0;;;44.0;;
22673;SDS011;11504;43.334;21.918;2022-12-18T21:40:14;47.0;;;44.0;;
22673;SDS011;11504;43.334;21.918;2022-12-18T21:44:50;50.0;;;47.0;;
22673;SDS011;11504;43.334;21.918;2022-12-18T21:49:26;50.0;;;47.0;;
22673;SDS011;11504;43.334;21.918;2022-12-18T21:54:03;53.0;;;50.0;;
22673;SDS011;11504;43.334;21.918;2022-12-18T21:58:39;53.0;;;50.0;;
22673;SDS011;11504;43.334;21.918;2022-12-18T22:03:16;53.0;;;50.0;;
22673;SDS011;11504;43.334;21.918;2022-12-18T22:07:52;54.0;;;50.0;;
22673;SDS011;11504;43.334;21.918;2022-12-18T22:12:29;54.0;;;50.0;;
22673;SDS011;11504;43.334;21.918;2022-12-18T22:17:05;54.0;;;51.0;;
22673;SDS011;11504;43.334;21.918;2022-12-18T22:21:44;54.0;;;51.0;;
22673;SDS011;11504;43.334;21.918;2022-12-18T22:26:27;45.0;;;42.0;;
22673;SDS011;11504;43.334;21.918;2022-12-18T22:31:07;45.0;;;42.0;;
22673;SDS011;11504;43.334;21.918;2022-12-18T22:35:43;36.0;;;33.0;;
22673;SDS011;11504;43.334;21.918;2022-12-18T22:40:22;36.0;;;33.0;;
22673;SDS011;11504;43.334;21.918;2022-12-18T22:44:58;36.0;;;32.0;;
22673;SDS011;11504;43.334;21.918;2022-12-18T22:49:36;36.0;;;32.0;;
22673;SDS011;11504;43.334;21.918;2022-12-18T22:54:13;35.0;;;31.0;;
22673;SDS011;11504;43.334;21.918;2022-12-18T22:58:51;35.0;;;31.0;;
22673;SDS011;11504;43.334;21.918;2022-12-18T23:03:27;34.0;;;29.0;;
22673;SDS011;11504;43.334;21.918;2022-12-18T23:08:04;34.0;;;29.0;;
22673;SDS011;11504;43.334;21.918;2022-12-18T23:12:40;34.0;;;29.0;;
22673;SDS011;11504;43.334;21.918;2022-12-18T23:17:15;32.0;;;27.0;;
22673;SDS011;11504;43.334;21.918;2022-12-18T23:21:52;32.0;;;27.0;;
22673;SDS011;11504;43.334;21.918;2022-12-18T23:26:28;32.0;;;27.0;;
22673;SDS011;11504;43.334;21.918;2022-12-18T23:31:09;32.0;;;27.0;;
22673;SDS011;11504;43.334;21.918;2022-12-18T23:35:50;32.0;;;27.0;;
22673;SDS011;11504;43.334;21.918;2022-12-18T23:40:28;32.0;;;27.0;;
22673;SDS011;11504;43.334;21.918;2022-12-18T23:45:07;31.0;;;26.0;;
22673;SDS011;11504;43.334;21.918;2022-12-18T23:49:44;31.0;;;26.0;;
22673;SDS011;11504;43.334;21.918;2022-12-18T23:54:20;30.0;;;24.0;;
22673;SDS011;11504;43.334;21.918;2022-12-18T23:58:56;30.0;;;24.0;;
